Thornwood, NY (10594)

5:56 PM EDT on July 31, 2015 (GMT -0400)
Pace University - Dyson Hall | | Change Station
CLOSE
Current Station
Personal Weather Station
Location: Pleasantville, NY
Elevation: 323 ft
Nearby Weather Stations

Elev 323 ft 41.13 °N, 73.81 °W | Updated 2 minutes ago

Clear
Clear
86.4 °F
Feels Like 85 °F
N
1.0
Wind Variable Wind from SSW
Gusts 3.0 mph

Today
High -- | Low -- °F
--% Chance of Precip.
Yesterday
High -- | Low -- °F
Precip. -- in
5:49 AM 8:12 PM
Full, 100% visible
Pressure 29.80 in
Visibility 10.0 miles
Clouds Few 4000 ft
Heat Index 85 °F
Dew Point 58 °F
Humidity 38%
Rainfall -999.00 in
Snow Depth Not available.
UV 4 out of 12
Pollen 5.60 out of 12
Air Quality Not available.
Flu Activity Not available.
METAR KHPN 312056Z 30013KT 10SM FEW040 29/12 A2982 RMK AO2 SLP091 T02940122 56010

More Conditions Fewer Conditions

Pressure 29.80 in
Visibility 10.0 miles
Clouds Few 4000 ft
Heat Index 85 °F
Dew Point 58 °F
Humidity 38%
Rainfall -999.00 in
Snow Depth Not available.
UV 4 out of 12
Pollen 5.60 out of 12
Air Quality Not available.
Flu Activity Not available.
METAR KHPN 312056Z 30013KT 10SM FEW040 29/12 A2982 RMK AO2 SLP091 T02940122 56010

More Conditions Fewer Conditions

10-Day Weather Forecast

×

Almanac

Astronomy

Jul. 31, 2015 Rise Set
Actual Time
Civil Twilight
Nautical Twilight
Astronomical Twilight
Moon
Length of Visible Light
Length of Day
Tomorrow will be .
, % of the Moon is Illuminated

Today's Extremes

State Highs State Lows

Community

WunderPhotos

Upload Photos

1,842,759 photos uploaded!

WunderBlogs® & News

Nearby

Air Quality

  Air Quality AQ Index Pollutant
Not available.

Snow Depth

Station Depth Elevation

Earthquake Activity

City Distance Mag. Time & Date
Minimum magnitude displayed is 2.5.

Coastal Water Temperatures

Place Temperature

Stations

Nearby Weather Stations

Station Location Temp. Windchill Dew Point Humidity Wind Precip. Elev Updated Type